Time;durP1;ratioP1;P1;durP2;ratioP2;P2;SDS_P1;SDS_P2;PMS_P1;PMS_P2;Temp;Humidity;BMP_temperature;BMP_pressure;BME280_temperature;BME280_humidity;BME280_pressure;Samples;Min_cycle;Max_cycle;Signal;HPM_P1;HPM_P2
2023/04/08 00:00:42;;;;;;;137.85;26.02;;;;;;;;;;4967138;28;98245;-76
2023/04/08 00:03:09;;;;;;;269.35;28.15;;;;;;;;;;4968266;28;98473;-76
2023/04/08 00:05:35;;;;;;;275.90;28.48;;;;;;;;;;4967226;28;100131;-76
2023/04/08 00:08:02;;;;;;;226.25;28.92;;;;;;;;;;4967112;28;99027;-76
2023/04/08 00:10:28;;;;;;;261.60;30.70;;;;;;;;;;4968425;28;98760;-76
2023/04/08 00:12:55;;;;;;;424.05;37.63;;;;;;;;;;4969061;28;100060;-76
2023/04/08 00:15:21;;;;;;;299.30;29.65;;;;;;;;;;4967886;28;99467;-75
2023/04/08 00:17:47;;;;;;;220.20;30.75;;;;;;;;;;4966528;28;99292;-76
2023/04/08 00:20:14;;;;;;;205.07;29.42;;;;;;;;;;4967115;28;98405;-76
2023/04/08 00:22:40;;;;;;;300.10;32.70;;;;;;;;;;4968222;28;99961;-76
2023/04/08 00:25:08;;;;;;;245.10;28.75;;;;;;;;;;4987566;28;100044;-76
2023/04/08 00:27:34;;;;;;;198.80;26.40;;;;;;;;;;4987246;28;98293;-76
2023/04/08 00:30:02;;;;;;;358.75;34.53;;;;;;;;;;4985924;28;101031;-76
2023/04/08 00:32:28;;;;;;;334.80;33.75;;;;;;;;;;4969663;28;99067;-76
2023/04/08 00:34:56;;;;;;;455.70;40.35;;;;;;;;;;4968635;28;98361;-76
2023/04/08 00:37:23;;;;;;;467.38;37.65;;;;;;;;;;4966006;28;99598;-76
2023/04/08 00:39:52;;;;;;;354.67;31.73;;;;;;;;;;4967962;28;98272;-76
2023/04/08 00:42:20;;;;;;;359.55;34.67;;;;;;;;;;4967132;28;99258;-76
2023/04/08 00:44:47;;;;;;;377.90;39.38;;;;;;;;;;4965954;28;101001;-76
2023/04/08 00:47:14;;;;;;;344.52;34.35;;;;;;;;;;4965842;28;98318;-76
2023/04/08 00:49:41;;;;;;;456.70;40.58;;;;;;;;;;4966018;28;98604;-76
2023/04/08 00:52:07;;;;;;;286.33;28.90;;;;;;;;;;4967709;28;99138;-75
2023/04/08 00:54:35;;;;;;;412.20;33.85;;;;;;;;;;4967883;28;98206;-76
2023/04/08 00:57:03;;;;;;;337.73;28.95;;;;;;;;;;4968169;28;100469;-76
2023/04/08 00:59:29;;;;;;;332.55;29.60;;;;;;;;;;4967593;28;98632;-76
2023/04/08 01:02:00;;;;;;;375.10;35.50;;;;;;;;;;4965833;28;99851;-75
2023/04/08 01:04:26;;;;;;;392.10;29.30;;;;;;;;;;4969806;28;98842;-76
2023/04/08 01:06:58;;;;;;;300.08;33.35;;;;;;;;;;4970694;28;98195;-76
2023/04/08 01:09:26;;;;;;;298.83;23.63;;;;;;;;;;4970772;28;99103;-76
2023/04/08 01:11:55;;;;;;;308.08;28.02;;;;;;;;;;4950470;28;100135;-76
2023/04/08 01:14:24;;;;;;;270.67;24.85;;;;;;;;;;4959454;28;98317;-76
2023/04/08 01:16:50;;;;;;;190.73;26.77;;;;;;;;;;4969271;28;99265;-76
2023/04/08 01:19:26;;;;;;;272.50;24.05;;;;;;;;;;4973808;28;98878;-76
2023/04/08 01:21:53;;;;;;;275.58;28.73;;;;;;;;;;4968011;28;100394;-76
2023/04/08 01:24:26;;;;;;;264.80;26.65;;;;;;;;;;4968440;28;99149;-76
2023/04/08 01:26:56;;;;;;;184.43;23.48;;;;;;;;;;4968888;28;98237;-76
2023/04/08 01:29:23;;;;;;;236.23;22.23;;;;;;;;;;4970591;28;98235;-76
2023/04/08 01:31:50;;;;;;;343.20;27.50;;;;;;;;;;4979750;28;100827;-76
2023/04/08 01:34:18;;;;;;;520.38;34.88;;;;;;;;;;4976764;28;99191;-76
2023/04/08 01:36:45;;;;;;;184.38;24.90;;;;;;;;;;4969885;28;98526;-76
2023/04/08 01:39:13;;;;;;;351.38;27.50;;;;;;;;;;4969159;28;98987;-76
2023/04/08 01:41:39;;;;;;;268.98;32.38;;;;;;;;;;4973652;28;98450;-75
2023/04/08 01:44:06;;;;;;;335.23;28.45;;;;;;;;;;4967526;28;100116;-75
2023/04/08 01:46:33;;;;;;;316.25;26.23;;;;;;;;;;4969889;28;99128;-75
2023/04/08 01:49:01;;;;;;;320.92;25.98;;;;;;;;;;4968821;28;100839;-76
2023/04/08 01:51:28;;;;;;;512.40;41.00;;;;;;;;;;4969247;28;98807;-75
2023/04/08 01:53:55;;;;;;;594.67;34.03;;;;;;;;;;4969535;28;98603;-76
2023/04/08 01:56:21;;;;;;;291.30;28.67;;;;;;;;;;4969766;28;98600;-77
2023/04/08 01:58:51;;;;;;;444.38;25.70;;;;;;;;;;4967147;28;98913;-76
2023/04/08 02:01:19;;;;;;;397.10;28.42;;;;;;;;;;4971073;28;98275;-76
2023/04/08 02:03:50;;;;;;;429.33;28.15;;;;;;;;;;4968395;28;100382;-76
2023/04/08 02:06:17;;;;;;;280.73;24.10;;;;;;;;;;4969993;28;98604;-76
2023/04/08 02:08:44;;;;;;;306.58;30.65;;;;;;;;;;4968099;28;101166;-75
2023/04/08 02:11:11;;;;;;;336.77;29.23;;;;;;;;;;4967512;28;101387;-75
2023/04/08 02:13:38;;;;;;;224.40;22.00;;;;;;;;;;4967477;28;98394;-76
2023/04/08 02:16:43;;;;;;;260.65;25.75;;;;;;;;;;4968336;28;98477;-76
2023/04/08 02:19:15;;;;;;;327.58;29.65;;;;;;;;;;4927300;28;98775;-75
2023/04/08 02:21:45;;;;;;;463.63;35.10;;;;;;;;;;4958828;28;98552;-75
2023/04/08 02:24:12;;;;;;;189.68;22.48;;;;;;;;;;4971918;28;99582;-75
2023/04/08 02:26:41;;;;;;;265.95;28.27;;;;;;;;;;4988930;28;98223;-76
2023/04/08 02:29:09;;;;;;;223.77;28.67;;;;;;;;;;4989449;28;98597;-75
2023/04/08 02:31:37;;;;;;;391.33;28.67;;;;;;;;;;4987747;28;100007;-75
2023/04/08 02:34:04;;;;;;;201.35;27.90;;;;;;;;;;4988408;28;98534;-76
2023/04/08 02:36:31;;;;;;;328.63;25.17;;;;;;;;;;4988416;28;98249;-75
2023/04/08 02:39:01;;;;;;;218.43;24.48;;;;;;;;;;4986673;28;99948;-76
2023/04/08 02:41:29;;;;;;;224.68;32.35;;;;;;;;;;4988446;28;98354;-76
2023/04/08 02:43:55;;;;;;;186.07;27.05;;;;;;;;;;4987109;28;98774;-75
2023/04/08 02:46:21;;;;;;;127.05;27.85;;;;;;;;;;4980791;28;98822;-76
2023/04/08 02:48:48;;;;;;;150.35;28.85;;;;;;;;;;4966697;28;100310;-76
2023/04/08 02:51:15;;;;;;;141.05;28.67;;;;;;;;;;4969196;28;98777;-76
2023/04/08 02:53:41;;;;;;;198.23;28.58;;;;;;;;;;4969587;28;98148;-76
2023/04/08 02:56:11;;;;;;;143.63;29.48;;;;;;;;;;4971852;28;100803;-75
2023/04/08 02:58:37;;;;;;;119.70;27.20;;;;;;;;;;4988750;28;100177;-76
2023/04/08 03:01:03;;;;;;;154.73;30.15;;;;;;;;;;4987513;28;98267;-75
2023/04/08 03:03:30;;;;;;;90.75;30.02;;;;;;;;;;4987912;28;98504;-75
2023/04/08 03:05:57;;;;;;;136.20;31.67;;;;;;;;;;4988165;28;99268;-76
2023/04/08 03:08:23;;;;;;;143.93;30.92;;;;;;;;;;4991546;28;98323;-76
2023/04/08 03:10:50;;;;;;;87.28;28.50;;;;;;;;;;4979913;28;100053;-76
2023/04/08 03:13:16;;;;;;;115.38;32.20;;;;;;;;;;4969374;28;98313;-75
2023/04/08 03:15:43;;;;;;;113.03;30.20;;;;;;;;;;4968744;28;98658;-75
2023/04/08 03:18:09;;;;;;;126.05;32.88;;;;;;;;;;4969449;28;99276;-75
2023/04/08 03:20:36;;;;;;;86.55;30.65;;;;;;;;;;4968721;28;98213;-75
2023/04/08 03:23:02;;;;;;;103.03;30.95;;;;;;;;;;4967736;28;100138;-76
2023/04/08 03:25:28;;;;;;;91.28;32.58;;;;;;;;;;4967576;28;100216;-75
2023/04/08 03:27:56;;;;;;;84.20;29.80;;;;;;;;;;4967914;28;98249;-75
2023/04/08 03:30:23;;;;;;;105.65;29.90;;;;;;;;;;4971609;28;99233;-75
2023/04/08 03:32:49;;;;;;;131.05;30.58;;;;;;;;;;4968654;28;98789;-75
2023/04/08 03:35:16;;;;;;;256.90;38.35;;;;;;;;;;4968255;28;98439;-75
2023/04/08 03:37:42;;;;;;;153.25;35.60;;;;;;;;;;4947850;28;100710;-75
2023/04/08 03:40:09;;;;;;;99.10;30.45;;;;;;;;;;4949017;28;98054;-75
2023/04/08 03:42:35;;;;;;;154.63;32.75;;;;;;;;;;4949098;28;98502;-75
2023/04/08 03:45:02;;;;;;;167.70;33.35;;;;;;;;;;4948473;28;98971;-75
2023/04/08 03:47:29;;;;;;;112.57;29.65;;;;;;;;;;4958052;28;98260;-75
2023/04/08 03:49:56;;;;;;;176.40;27.00;;;;;;;;;;4967115;28;99750;-75
2023/04/08 03:52:23;;;;;;;161.90;26.67;;;;;;;;;;4972769;28;98249;-75
2023/04/08 03:54:50;;;;;;;159.00;29.95;;;;;;;;;;4967890;28;99913;-75
2023/04/08 03:57:16;;;;;;;150.63;28.80;;;;;;;;;;4968033;28;100079;-75
2023/04/08 03:59:42;;;;;;;171.00;26.52;;;;;;;;;;4966473;28;98501;-75
2023/04/08 04:02:09;;;;;;;192.27;23.70;;;;;;;;;;4968085;28;99435;-75
2023/04/08 04:04:35;;;;;;;148.48;27.05;;;;;;;;;;4968673;28;99772;-75
2023/04/08 04:07:02;;;;;;;193.10;31.88;;;;;;;;;;4968177;28;99236;-75
2023/04/08 04:09:28;;;;;;;213.57;25.02;;;;;;;;;;4968193;28;99505;-75
2023/04/08 04:11:55;;;;;;;87.20;20.77;;;;;;;;;;4969975;28;100241;-75
2023/04/08 04:14:21;;;;;;;56.55;19.38;;;;;;;;;;4968211;28;98666;-75
2023/04/08 04:16:48;;;;;;;70.22;20.95;;;;;;;;;;4967067;28;100031;-75
2023/04/08 04:19:14;;;;;;;38.90;19.70;;;;;;;;;;4947517;28;98313;-75
2023/04/08 04:21:41;;;;;;;22.38;17.38;;;;;;;;;;4959136;28;98825;-76
2023/04/08 04:24:07;;;;;;;28.88;17.90;;;;;;;;;;4967571;28;100317;-75
2023/04/08 04:26:34;;;;;;;27.15;18.30;;;;;;;;;;4967454;28;98730;-75
2023/04/08 04:29:00;;;;;;;51.97;18.38;;;;;;;;;;4967793;28;99566;-75
2023/04/08 04:31:26;;;;;;;24.80;18.52;;;;;;;;;;4967427;28;100300;-76
2023/04/08 04:33:53;;;;;;;24.20;19.75;;;;;;;;;;4970033;28;98532;-75
2023/04/08 04:36:20;;;;;;;31.65;20.20;;;;;;;;;;4967941;28;99005;-75
2023/04/08 04:38:46;;;;;;;44.63;20.42;;;;;;;;;;4968509;28;98217;-75
2023/04/08 04:41:15;;;;;;;31.50;20.58;;;;;;;;;;4970972;28;98640;-75
2023/04/08 04:43:42;;;;;;;25.55;20.25;;;;;;;;;;4970893;28;98987;-75
2023/04/08 04:46:08;;;;;;;20.88;17.42;;;;;;;;;;4971226;28;98284;-75
2023/04/08 04:48:35;;;;;;;25.98;18.67;;;;;;;;;;4970208;28;99678;-75
2023/04/08 04:51:06;;;;;;;29.95;19.30;;;;;;;;;;4970279;28;99984;-76
2023/04/08 04:53:32;;;;;;;20.15;17.77;;;;;;;;;;4970688;28;98133;-77
2023/04/08 04:56:00;;;;;;;20.73;17.88;;;;;;;;;;4973767;28;99970;-77
2023/04/08 04:58:27;;;;;;;23.27;18.20;;;;;;;;;;4970941;28;98293;-76
2023/04/08 05:00:54;;;;;;;18.83;16.08;;;;;;;;;;4969858;28;101020;-76
2023/04/08 05:03:20;;;;;;;17.15;15.25;;;;;;;;;;4969383;28;100140;-76
2023/04/08 05:05:53;;;;;;;18.85;16.95;;;;;;;;;;4970940;28;98808;-76
2023/04/08 05:08:20;;;;;;;20.35;17.63;;;;;;;;;;4970389;28;98962;-76
2023/04/08 05:10:49;;;;;;;21.73;16.02;;;;;;;;;;4970212;28;99879;-76
2023/04/08 05:13:16;;;;;;;46.92;20.75;;;;;;;;;;4971316;28;98326;-76
2023/04/08 05:15:44;;;;;;;45.22;21.63;;;;;;;;;;4969809;28;98739;-76
2023/04/08 05:18:10;;;;;;;136.43;25.27;;;;;;;;;;4974181;28;99218;-76
2023/04/08 05:20:37;;;;;;;75.75;22.75;;;;;;;;;;4970779;28;99852;-76
2023/04/08 05:23:03;;;;;;;53.75;19.92;;;;;;;;;;4969307;28;99950;-76
2023/04/08 05:25:29;;;;;;;40.55;21.23;;;;;;;;;;4970355;28;98358;-76
2023/04/08 05:27:56;;;;;;;55.42;19.08;;;;;;;;;;4968842;28;99436;-76
2023/04/08 05:30:22;;;;;;;44.38;20.40;;;;;;;;;;4969769;28;100507;-76
2023/04/08 05:32:49;;;;;;;85.72;21.17;;;;;;;;;;4970651;28;98392;-76
2023/04/08 05:35:16;;;;;;;75.93;22.05;;;;;;;;;;4970332;28;99717;-76
2023/04/08 05:37:42;;;;;;;46.58;20.02;;;;;;;;;;4969245;28;99214;-76
2023/04/08 05:40:09;;;;;;;33.30;18.73;;;;;;;;;;4973561;28;98279;-76
2023/04/08 05:42:35;;;;;;;22.67;18.67;;;;;;;;;;4970154;28;99061;-76
2023/04/08 05:45:02;;;;;;;20.65;16.58;;;;;;;;;;4969424;28;98357;-76
2023/04/08 05:47:28;;;;;;;18.75;16.92;;;;;;;;;;4970451;28;99540;-76
2023/04/08 05:49:55;;;;;;;19.25;16.65;;;;;;;;;;4969480;28;100404;-76
2023/04/08 05:52:21;;;;;;;17.77;15.93;;;;;;;;;;4968810;28;98284;-76
2023/04/08 05:54:47;;;;;;;19.38;16.23;;;;;;;;;;4970071;28;98597;-76
2023/04/08 05:57:15;;;;;;;20.27;14.90;;;;;;;;;;4969264;28;99120;-76
2023/04/08 05:59:41;;;;;;;17.77;14.57;;;;;;;;;;4972447;28;98288;-77
2023/04/08 06:02:08;;;;;;;16.08;14.45;;;;;;;;;;4969764;28;99275;-76
2023/04/08 06:04:35;;;;;;;14.57;13.07;;;;;;;;;;4969871;28;98281;-76
2023/04/08 06:07:02;;;;;;;13.93;12.52;;;;;;;;;;4969957;28;98969;-76
2023/04/08 06:09:29;;;;;;;17.10;14.18;;;;;;;;;;4969775;28;100132;-77
2023/04/08 06:11:56;;;;;;;15.60;14.23;;;;;;;;;;4968657;28;98290;-76
2023/04/08 06:14:22;;;;;;;14.35;13.00;;;;;;;;;;4969683;28;99447;-76
2023/04/08 06:16:49;;;;;;;15.10;13.60;;;;;;;;;;4968063;28;100155;-76
2023/04/08 06:19:15;;;;;;;13.18;11.98;;;;;;;;;;4976037;28;99212;-75
2023/04/08 06:21:42;;;;;;;14.07;12.18;;;;;;;;;;4958194;28;99776;-76
2023/04/08 06:24:08;;;;;;;14.10;12.70;;;;;;;;;;4954199;28;98259;-75
2023/04/08 06:26:34;;;;;;;15.82;12.45;;;;;;;;;;4958636;28;99843;-76
2023/04/08 06:29:01;;;;;;;15.80;12.98;;;;;;;;;;4949391;28;100641;-76
2023/04/08 06:31:28;;;;;;;13.88;12.48;;;;;;;;;;4949799;28;98272;-75
2023/04/08 06:33:54;;;;;;;19.02;12.13;;;;;;;;;;4965049;28;99915;-76
2023/04/08 06:36:21;;;;;;;12.65;11.40;;;;;;;;;;4962063;28;98897;-77
2023/04/08 06:38:47;;;;;;;13.57;12.20;;;;;;;;;;4958078;28;98035;-77
2023/04/08 06:41:14;;;;;;;14.57;13.27;;;;;;;;;;4961664;28;98915;-75
2023/04/08 06:43:41;;;;;;;15.57;13.00;;;;;;;;;;4956402;28;99985;-78
2023/04/08 06:46:07;;;;;;;14.38;12.65;;;;;;;;;;4954777;28;98673;-79
2023/04/08 06:48:36;;;;;;;13.00;11.63;;;;;;;;;;4978750;28;99898;-78
2023/04/08 06:51:02;;;;;;;13.15;11.77;;;;;;;;;;4979762;28;98242;-79
2023/04/08 06:53:30;;;;;;;13.43;11.20;;;;;;;;;;4999411;28;98732;-79
2023/04/08 06:55:56;;;;;;;14.10;12.13;;;;;;;;;;4976881;28;99007;-80
2023/04/08 06:58:22;;;;;;;11.75;10.70;;;;;;;;;;4969530;28;98250;-77
2023/04/08 07:00:49;;;;;;;13.38;11.80;;;;;;;;;;4964820;28;100131;-76
2023/04/08 07:03:16;;;;;;;11.75;10.65;;;;;;;;;;4967222;28;100112;-77
2023/04/08 07:05:42;;;;;;;13.45;11.20;;;;;;;;;;4961812;28;98289;-77
2023/04/08 07:08:08;;;;;;;12.98;11.65;;;;;;;;;;4967779;28;99833;-78
2023/04/08 07:10:35;;;;;;;13.45;11.95;;;;;;;;;;4969338;28;98205;-76
2023/04/08 07:13:02;;;;;;;14.02;11.10;;;;;;;;;;4958667;28;99380;-77
2023/04/08 07:15:28;;;;;;;12.45;11.23;;;;;;;;;;4948226;28;100068;-77
2023/04/08 07:17:58;;;;;;;10.95;10.00;;;;;;;;;;4952102;28;98284;-77
2023/04/08 07:20:25;;;;;;;14.18;11.02;;;;;;;;;;4968858;28;98742;-77
2023/04/08 07:22:51;;;;;;;12.18;10.40;;;;;;;;;;4955676;28;100379;-77
2023/04/08 07:25:17;;;;;;;12.80;10.60;;;;;;;;;;4968353;28;98076;-77
2023/04/08 07:27:44;;;;;;;15.82;10.15;;;;;;;;;;4971580;28;99303;-78
2023/04/08 07:30:10;;;;;;;12.35;11.07;;;;;;;;;;4967610;28;98338;-75
2023/04/08 07:32:37;;;;;;;10.50;9.50;;;;;;;;;;4968001;28;99484;-75
2023/04/08 07:35:03;;;;;;;12.93;10.75;;;;;;;;;;4967980;28;100090;-76
2023/04/08 07:37:30;;;;;;;11.48;10.43;;;;;;;;;;4982208;28;98455;-75
2023/04/08 07:39:56;;;;;;;11.18;10.07;;;;;;;;;;4962846;28;99896;-76
2023/04/08 07:42:22;;;;;;;10.05;9.15;;;;;;;;;;4947647;28;100675;-75
2023/04/08 07:44:49;;;;;;;10.65;9.57;;;;;;;;;;4950990;28;98328;-76
2023/04/08 07:47:15;;;;;;;11.13;9.35;;;;;;;;;;4948520;28;98730;-75
2023/04/08 07:49:42;;;;;;;10.35;9.35;;;;;;;;;;4951583;28;99960;-76
2023/04/08 07:52:08;;;;;;;10.35;9.38;;;;;;;;;;4947614;28;99313;-76
2023/04/08 07:54:34;;;;;;;10.85;9.90;;;;;;;;;;4957439;28;99909;-75
2023/04/08 07:57:01;;;;;;;11.43;9.68;;;;;;;;;;4947502;28;98518;-75
2023/04/08 07:59:28;;;;;;;11.55;9.35;;;;;;;;;;4948944;28;98992;-76
2023/04/08 08:01:54;;;;;;;10.80;9.73;;;;;;;;;;4948075;28;100078;-77
2023/04/08 08:04:24;;;;;;;11.13;10.02;;;;;;;;;;4964469;28;98590;-75
2023/04/08 08:06:51;;;;;;;11.85;9.80;;;;;;;;;;4967394;28;98496;-76
2023/04/08 08:09:17;;;;;;;13.63;10.13;;;;;;;;;;4970987;28;100008;-76
2023/04/08 08:11:44;;;;;;;15.75;10.55;;;;;;;;;;4952172;28;99367;-76
2023/04/08 08:14:12;;;;;;;10.68;9.25;;;;;;;;;;4964580;28;98953;-76
2023/04/08 08:16:39;;;;;;;12.80;11.18;;;;;;;;;;4952169;28;98253;-76
2023/04/08 08:19:07;;;;;;;13.70;11.68;;;;;;;;;;4956398;28;99587;-76
2023/04/08 08:21:36;;;;;;;14.00;11.77;;;;;;;;;;4971842;28;99020;-76
2023/04/08 08:24:03;;;;;;;20.17;15.48;;;;;;;;;;4971051;28;98349;-77
2023/04/08 08:26:29;;;;;;;12.40;11.07;;;;;;;;;;4967911;28;98917;-75
2023/04/08 08:28:56;;;;;;;11.70;10.50;;;;;;;;;;4970462;28;100068;-76
2023/04/08 08:31:22;;;;;;;12.15;10.57;;;;;;;;;;4965844;28;98365;-77
2023/04/08 08:33:48;;;;;;;12.68;11.35;;;;;;;;;;4964829;28;98972;-76
2023/04/08 08:36:15;;;;;;;13.90;11.23;;;;;;;;;;4971385;28;98234;-76
2023/04/08 08:38:42;;;;;;;10.15;9.25;;;;;;;;;;4971032;28;99920;-76
2023/04/08 08:41:08;;;;;;;14.13;10.80;;;;;;;;;;4970112;28;99376;-75
2023/04/08 08:43:35;;;;;;;14.50;10.65;;;;;;;;;;4970319;28;98849;-75
2023/04/08 08:46:01;;;;;;;13.50;9.63;;;;;;;;;;4970197;28;99598;-76
2023/04/08 08:48:27;;;;;;;17.30;10.38;;;;;;;;;;4970842;28;99954;-75
2023/04/08 08:50:54;;;;;;;12.40;9.30;;;;;;;;;;4969572;28;98284;-76
2023/04/08 08:53:22;;;;;;;12.43;11.13;;;;;;;;;;4972002;28;100994;-76
2023/04/08 08:55:48;;;;;;;11.43;10.40;;;;;;;;;;4972436;28;98236;-76
2023/04/08 08:58:35;;;;;;;10.90;9.80;;;;;;;;;;4965652;28;99369;-75
2023/04/08 09:01:22;;;;;;;11.50;10.43;;;;;;;;;;4967195;28;99942;-75
2023/04/08 09:04:05;;;;;;;11.32;10.30;;;;;;;;;;4967905;28;98264;-76
2023/04/08 09:06:31;;;;;;;10.88;8.95;;;;;;;;;;4971020;28;99498;-75
2023/04/08 09:08:58;;;;;;;13.45;11.07;;;;;;;;;;4951668;28;98491;-76
2023/04/08 09:11:24;;;;;;;15.70;9.80;;;;;;;;;;4980872;28;98351;-75
2023/04/08 09:13:51;;;;;;;11.60;9.98;;;;;;;;;;4950972;28;99669;-75
2023/04/08 09:16:18;;;;;;;11.10;10.00;;;;;;;;;;4967523;28;98961;-76
2023/04/08 09:18:47;;;;;;;13.57;10.25;;;;;;;;;;4970117;28;99453;-76
2023/04/08 09:21:15;;;;;;;10.88;9.88;;;;;;;;;;4955065;28;100512;-76
2023/04/08 09:23:42;;;;;;;11.35;9.88;;;;;;;;;;4969590;28;98252;-76
2023/04/08 09:26:09;;;;;;;9.88;8.88;;;;;;;;;;4970792;28;98515;-76
2023/04/08 09:28:36;;;;;;;11.20;9.90;;;;;;;;;;4969104;28;100501;-76
2023/04/08 09:31:19;;;;;;;11.98;10.50;;;;;;;;;;4969710;28;99032;-75
2023/04/08 09:33:47;;;;;;;11.00;8.85;;;;;;;;;;4967780;28;98671;-76
2023/04/08 09:36:14;;;;;;;13.93;9.70;;;;;;;;;;4969039;28;99806;-76
2023/04/08 09:38:41;;;;;;;10.57;9.00;;;;;;;;;;4973382;28;98263;-76
2023/04/08 09:41:11;;;;;;;10.32;9.30;;;;;;;;;;4970058;28;100145;-76
2023/04/08 09:43:42;;;;;;;14.07;9.43;;;;;;;;;;4970431;28;98334;-76
2023/04/08 09:46:10;;;;;;;13.35;9.40;;;;;;;;;;4990012;28;99718;-76
2023/04/08 09:48:40;;;;;;;11.95;9.65;;;;;;;;;;4985918;28;101177;-76
2023/04/08 09:51:07;;;;;;;11.32;8.23;;;;;;;;;;4956271;28;98499;-76
2023/04/08 09:53:35;;;;;;;10.35;9.32;;;;;;;;;;4961809;28;98584;-76
2023/04/08 09:56:06;;;;;;;11.00;9.05;;;;;;;;;;4971673;28;100065;-76
2023/04/08 09:58:36;;;;;;;9.50;8.52;;;;;;;;;;4971496;28;98410;-76
2023/04/08 10:01:03;;;;;;;9.90;8.95;;;;;;;;;;4976312;28;98166;-76
2023/04/08 10:03:35;;;;;;;9.40;8.55;;;;;;;;;;4971519;28;98450;-75
2023/04/08 10:06:02;;;;;;;8.55;7.82;;;;;;;;;;4973463;28;99795;-76
2023/04/08 10:08:30;;;;;;;9.68;8.68;;;;;;;;;;4970138;28;99580;-76
2023/04/08 10:10:57;;;;;;;12.02;8.85;;;;;;;;;;4968656;28;98416;-76
2023/04/08 10:13:24;;;;;;;9.93;9.02;;;;;;;;;;4970171;28;98459;-76
2023/04/08 10:16:10;;;;;;;10.30;9.32;;;;;;;;;;4968794;28;100116;-76
2023/04/08 10:18:38;;;;;;;12.40;8.15;;;;;;;;;;4958649;28;98247;-76
2023/04/08 10:21:25;;;;;;;9.30;8.48;;;;;;;;;;4972291;28;98820;-76
2023/04/08 10:23:53;;;;;;;12.20;8.88;;;;;;;;;;4950144;28;98383;-76
2023/04/08 10:26:30;;;;;;;18.13;8.60;;;;;;;;;;4965397;28;99507;-76
2023/04/08 10:29:17;;;;;;;9.40;8.45;;;;;;;;;;4968095;28;99989;-76
2023/04/08 10:31:43;;;;;;;11.15;9.00;;;;;;;;;;4954773;28;98231;-76
2023/04/08 10:34:16;;;;;;;8.60;7.80;;;;;;;;;;4968872;28;98431;-78
2023/04/08 10:36:43;;;;;;;;;;;;;;;;;;4950569;28;99700;-76
2023/04/08 10:39:09;;;;;;;10.30;8.20;;;;;;;;;;4956455;28;123785;-76
2023/04/08 10:41:46;;;;;;;10.00;8.57;;;;;;;;;;4949805;28;99463;-74
2023/04/08 10:44:19;;;;;;;8.82;8.02;;;;;;;;;;4955067;28;99996;-74
2023/04/08 10:46:46;;;;;;;9.00;8.23;;;;;;;;;;4951556;28;99413;-76
2023/04/08 10:49:13;;;;;;;9.55;8.57;;;;;;;;;;4951713;28;100262;-75
2023/04/08 10:51:40;;;;;;;10.57;7.50;;;;;;;;;;4961447;28;99531;-74
2023/04/08 10:54:08;;;;;;;8.82;7.80;;;;;;;;;;4958234;28;98630;-75
2023/04/08 10:56:34;;;;;;;9.25;8.35;;;;;;;;;;4950438;28;99126;-81
2023/04/08 10:59:02;;;;;;;9.32;8.43;;;;;;;;;;4956740;28;98264;-74
2023/04/08 11:01:37;;;;;;;9.70;8.70;;;;;;;;;;4967975;28;99717;-76
2023/04/08 11:04:06;;;;;;;9.25;8.48;;;;;;;;;;4969936;28;99931;-74
2023/04/08 11:06:35;;;;;;;8.52;6.80;;;;;;;;;;4953251;28;98197;-73
2023/04/08 11:09:03;;;;;;;8.77;7.97;;;;;;;;;;4953804;28;99233;-73
2023/04/08 11:11:30;;;;;;;10.07;8.75;;;;;;;;;;4963435;28;101121;-74
2023/04/08 11:13:56;;;;;;;8.63;7.82;;;;;;;;;;4957958;28;98618;-73
2023/04/08 11:16:24;;;;;;;8.48;7.57;;;;;;;;;;4953576;28;100390;-74
2023/04/08 11:18:52;;;;;;;8.02;7.22;;;;;;;;;;4968219;28;98206;-74
2023/04/08 11:21:21;;;;;;;7.72;6.97;;;;;;;;;;4968298;28;98869;-73
2023/04/08 11:23:51;;;;;;;8.23;7.03;;;;;;;;;;4954288;28;99971;-74
2023/04/08 11:26:19;;;;;;;7.67;6.47;;;;;;;;;;4952054;28;98346;-74
2023/04/08 11:28:49;;;;;;;6.95;6.25;;;;;;;;;;4959928;28;100043;-74
2023/04/08 11:31:16;;;;;;;6.95;5.70;;;;;;;;;;4966820;28;98384;-74
2023/04/08 11:33:47;;;;;;;10.55;6.10;;;;;;;;;;4949413;28;99498;-75
2023/04/08 11:36:14;;;;;;;10.35;6.38;;;;;;;;;;4958620;28;100032;-74
2023/04/08 11:38:41;;;;;;;7.82;6.97;;;;;;;;;;4967596;28;98329;-74
2023/04/08 11:41:07;;;;;;;9.15;6.72;;;;;;;;;;4958578;28;99748;-75
2023/04/08 11:43:35;;;;;;;8.88;7.05;;;;;;;;;;4948178;28;99245;-74
2023/04/08 11:46:09;;;;;;;7.40;6.70;;;;;;;;;;4954320;28;100517;-75
2023/04/08 11:48:37;;;;;;;14.50;6.80;;;;;;;;;;4968198;28;99396;-76
2023/04/08 11:51:10;;;;;;;12.65;6.40;;;;;;;;;;4968255;28;100384;-74
2023/04/08 11:53:39;;;;;;;;;;;;;;;;;;4968269;28;99331;-75
2023/04/08 11:56:15;;;;;;;8.02;7.15;;;;;;;;;;4964839;28;129492;-75
2023/04/08 11:58:41;;;;;;;6.93;6.25;;;;;;;;;;4962902;28;98421;-74
2023/04/08 12:01:09;;;;;;;8.32;6.88;;;;;;;;;;4962835;28;100415;-74
2023/04/08 12:03:35;;;;;;;8.30;6.05;;;;;;;;;;4950872;28;100005;-74
2023/04/08 12:06:04;;;;;;;6.40;5.88;;;;;;;;;;4967771;28;98289;-73
2023/04/08 12:08:30;;;;;;;7.30;6.57;;;;;;;;;;4956865;28;98888;-73
2023/04/08 12:10:56;;;;;;;6.10;5.57;;;;;;;;;;4946868;28;100106;-73
2023/04/08 12:13:38;;;;;;;7.30;6.60;;;;;;;;;;4960990;28;98364;-73
2023/04/08 12:16:04;;;;;;;6.32;4.97;;;;;;;;;;4964339;28;100168;-73
2023/04/08 12:18:31;;;;;;;9.85;6.18;;;;;;;;;;4954511;28;98297;-73
2023/04/08 12:20:57;;;;;;;6.70;5.57;;;;;;;;;;4958993;28;98668;-75
2023/04/08 12:23:24;;;;;;;6.55;5.90;;;;;;;;;;4948730;28;99141;-74
2023/04/08 12:25:50;;;;;;;7.15;5.72;;;;;;;;;;4955867;28;98518;-74
2023/04/08 12:28:17;;;;;;;6.47;5.45;;;;;;;;;;4966823;28;99583;-73
2023/04/08 12:30:43;;;;;;;7.00;5.95;;;;;;;;;;4957115;28;98220;-73
2023/04/08 12:33:09;;;;;;;6.53;5.28;;;;;;;;;;4959851;28;100230;-77
2023/04/08 12:35:36;;;;;;;9.50;6.93;;;;;;;;;;4951078;28;99958;-73
2023/04/08 12:38:02;;;;;;;11.15;7.25;;;;;;;;;;4966110;28;98280;-73
2023/04/08 12:40:29;;;;;;;7.85;6.85;;;;;;;;;;4967456;28;99595;-73
2023/04/08 12:42:55;;;;;;;7.57;6.88;;;;;;;;;;4950458;28;99899;-76
2023/04/08 12:45:23;;;;;;;7.32;6.63;;;;;;;;;;4947640;28;98293;-76
2023/04/08 12:47:50;;;;;;;7.90;7.13;;;;;;;;;;4947961;28;98438;-74
2023/04/08 12:50:16;;;;;;;8.82;6.97;;;;;;;;;;4949581;28;99031;-75
2023/04/08 12:52:43;;;;;;;8.25;7.32;;;;;;;;;;4946966;28;98376;-73
2023/04/08 12:55:09;;;;;;;7.85;7.18;;;;;;;;;;4957658;28;98581;-75
2023/04/08 12:57:36;;;;;;;9.43;7.55;;;;;;;;;;4950836;28;98432;-75
2023/04/08 13:00:03;;;;;;;8.10;7.30;;;;;;;;;;4967119;28;99561;-75
2023/04/08 13:02:29;;;;;;;8.18;7.47;;;;;;;;;;4969181;28;99932;-75
2023/04/08 13:04:56;;;;;;;8.50;7.82;;;;;;;;;;4963587;28;98248;-74
2023/04/08 13:07:22;;;;;;;8.77;7.97;;;;;;;;;;4956359;28;98625;-74
2023/04/08 13:09:49;;;;;;;7.53;6.93;;;;;;;;;;4959292;28;100201;-75
2023/04/08 13:12:16;;;;;;;10.90;8.27;;;;;;;;;;4969822;28;98230;-75
2023/04/08 13:14:42;;;;;;;9.70;8.07;;;;;;;;;;4967377;28;100428;-75
2023/04/08 13:17:08;;;;;;;8.93;8.05;;;;;;;;;;4973312;28;98951;-74
2023/04/08 13:19:35;;;;;;;9.13;7.88;;;;;;;;;;4957553;28;101349;-74
2023/04/08 13:22:01;;;;;;;8.65;7.75;;;;;;;;;;4956363;28;100058;-74
2023/04/08 13:24:27;;;;;;;7.65;7.05;;;;;;;;;;4966237;28;98278;-74
2023/04/08 13:26:54;;;;;;;10.23;8.43;;;;;;;;;;4956834;28;99544;-74
2023/04/08 13:29:20;;;;;;;8.55;7.75;;;;;;;;;;4972510;28;100201;-74
2023/04/08 13:31:47;;;;;;;8.27;7.57;;;;;;;;;;4970187;28;98229;-75
2023/04/08 13:34:13;;;;;;;6.38;5.78;;;;;;;;;;4970754;28;99286;-74
2023/04/08 13:36:40;;;;;;;7.45;6.80;;;;;;;;;;4964990;28;100109;-75
2023/04/08 13:39:06;;;;;;;7.60;6.95;;;;;;;;;;4971443;28;98234;-75
2023/04/08 13:41:33;;;;;;;8.50;7.60;;;;;;;;;;4963988;28;99866;-75
2023/04/08 13:44:00;;;;;;;7.53;6.53;;;;;;;;;;4970569;28;98812;-75
2023/04/08 13:46:26;;;;;;;6.88;6.22;;;;;;;;;;4960087;28;98525;-76
2023/04/08 13:48:53;;;;;;;7.28;6.55;;;;;;;;;;4970040;28;99193;-76
2023/04/08 13:51:20;;;;;;;7.43;6.82;;;;;;;;;;4968809;28;98417;-75
2023/04/08 13:53:46;;;;;;;7.43;6.70;;;;;;;;;;4966890;28;99087;-75
2023/04/08 13:56:12;;;;;;;7.38;6.70;;;;;;;;;;4955430;28;99861;-75
2023/04/08 13:58:39;;;;;;;8.57;7.72;;;;;;;;;;4955944;28;98561;-73
2023/04/08 14:01:05;;;;;;;9.10;7.25;;;;;;;;;;4973812;28;99335;-74
2023/04/08 14:03:32;;;;;;;8.30;7.55;;;;;;;;;;4961260;28;100610;-74
2023/04/08 14:05:58;;;;;;;8.13;7.38;;;;;;;;;;4966721;28;99443;-74
2023/04/08 14:08:27;;;;;;;8.02;6.80;;;;;;;;;;4969474;28;100093;-74
2023/04/08 14:10:56;;;;;;;8.63;6.35;;;;;;;;;;4969442;28;98284;-74
2023/04/08 14:13:23;;;;;;;7.70;6.35;;;;;;;;;;4967566;28;99413;-73
2023/04/08 14:15:51;;;;;;;6.95;6.10;;;;;;;;;;4956214;28;99909;-74
2023/04/08 14:18:17;;;;;;;7.20;6.35;;;;;;;;;;4965977;28;98466;-74
2023/04/08 14:20:43;;;;;;;7.30;6.60;;;;;;;;;;4959431;28;98516;-74
2023/04/08 14:23:12;;;;;;;11.35;8.00;;;;;;;;;;4969910;28;98873;-74